createdAt,value
2023-05-21T00:00:17.966Z,14.24
2023-05-21T00:01:18.265Z,14.21
2023-05-21T00:02:17.973Z,14.21
2023-05-21T00:03:18.020Z,14.20
2023-05-21T00:04:17.921Z,14.20
2023-05-21T00:05:17.919Z,14.17
2023-05-21T00:06:17.954Z,14.17
2023-05-21T00:07:17.906Z,14.17
2023-05-21T00:08:19.168Z,14.14
2023-05-21T00:09:17.860Z,14.14
2023-05-21T00:10:18.524Z,14.13
2023-05-21T00:11:17.968Z,14.12
2023-05-21T00:12:17.819Z,14.09
2023-05-21T00:13:17.837Z,14.06
2023-05-21T00:14:17.785Z,14.06
2023-05-21T00:15:18.094Z,14.04
2023-05-21T00:16:17.820Z,14.01
2023-05-21T00:17:17.733Z,14.01
2023-05-21T00:18:17.765Z,14.04
2023-05-21T00:19:17.807Z,14.01
2023-05-21T00:20:17.772Z,13.99
2023-05-21T00:21:17.730Z,13.98
2023-05-21T00:22:17.977Z,13.98
2023-05-21T00:23:17.685Z,13.98
2023-05-21T00:24:17.690Z,13.96
2023-05-21T00:25:17.688Z,13.95
2023-05-21T00:26:17.674Z,13.92
2023-05-21T00:27:17.651Z,13.91
2023-05-21T00:28:17.642Z,13.88
2023-05-21T00:29:17.972Z,13.88
2023-05-21T00:30:17.672Z,13.87
2023-05-21T00:31:17.808Z,13.88
2023-05-21T00:32:17.602Z,13.84
2023-05-21T00:33:17.583Z,13.84
2023-05-21T00:34:17.564Z,13.83
2023-05-21T00:35:17.565Z,13.83
2023-05-21T00:36:17.850Z,13.83
2023-05-21T00:37:17.587Z,13.80
2023-05-21T00:38:17.525Z,13.81
2023-05-21T00:39:17.498Z,13.80
2023-05-21T00:40:17.498Z,13.79
2023-05-21T00:41:17.491Z,13.79
2023-05-21T00:42:17.474Z,13.76
2023-05-21T00:43:17.798Z,13.76
2023-05-21T00:44:17.455Z,13.74
2023-05-21T00:45:17.449Z,13.73
2023-05-21T00:46:17.460Z,13.73
2023-05-21T00:47:17.423Z,13.70
2023-05-21T00:48:17.416Z,13.65
2023-05-21T00:49:17.471Z,13.67
2023-05-21T00:50:17.667Z,13.67
2023-05-21T00:51:17.400Z,13.65
2023-05-21T00:52:17.376Z,13.65
2023-05-21T00:53:17.352Z,13.63
2023-05-21T00:54:17.352Z,13.63
2023-05-21T00:55:17.396Z,13.63
2023-05-21T00:56:17.368Z,13.61
2023-05-21T00:57:17.615Z,13.59
2023-05-21T00:58:17.315Z,13.58
2023-05-21T00:59:17.300Z,13.58
2023-05-21T01:00:17.309Z,13.58
2023-05-21T01:01:17.406Z,13.56
2023-05-21T01:02:17.363Z,13.55
2023-05-21T01:03:17.366Z,13.54
2023-05-21T01:04:17.559Z,13.56
2023-05-21T01:05:17.228Z,13.54
2023-05-21T01:06:17.212Z,13.52
2023-05-21T01:07:17.289Z,13.51
2023-05-21T01:08:17.206Z,13.51
2023-05-21T01:09:17.194Z,13.49
2023-05-21T01:10:17.226Z,13.49
2023-05-21T01:11:17.478Z,13.49
2023-05-21T01:12:17.168Z,13.47
2023-05-21T01:13:17.245Z,13.46
2023-05-21T01:14:17.142Z,13.44
2023-05-21T01:15:17.114Z,13.46
2023-05-21T01:16:17.139Z,13.44
2023-05-21T01:17:17.108Z,13.41
2023-05-21T01:18:17.401Z,13.44
2023-05-21T01:19:17.206Z,13.44
2023-05-21T01:20:17.069Z,13.43
2023-05-21T01:21:17.057Z,13.41
2023-05-21T01:22:17.061Z,13.43
2023-05-21T01:23:17.021Z,13.41
2023-05-21T01:24:17.033Z,13.41
2023-05-21T01:25:17.050Z,13.41
2023-05-21T01:26:17.008Z,13.41
2023-05-21T01:27:16.991Z,13.37
2023-05-21T01:28:17.045Z,13.38
2023-05-21T01:29:17.003Z,13.37
2023-05-21T01:30:16.963Z,13.36
2023-05-21T01:31:17.055Z,13.33
2023-05-21T01:32:16.956Z,13.33
2023-05-21T01:33:16.967Z,13.30
2023-05-21T01:34:16.934Z,13.29
2023-05-21T01:35:16.911Z,13.29
2023-05-21T01:36:16.907Z,13.27
2023-05-21T01:37:17.209Z,13.29
2023-05-21T01:38:16.902Z,13.30
2023-05-21T01:39:16.870Z,13.29
2023-05-21T01:40:16.849Z,13.29
2023-05-21T01:41:16.917Z,13.25
2023-05-21T01:42:16.854Z,13.25
2023-05-21T01:43:16.872Z,13.24
2023-05-21T01:44:17.092Z,13.24
2023-05-21T01:45:16.829Z,13.24
2023-05-21T01:46:16.833Z,13.22
2023-05-21T01:47:16.781Z,13.21
2023-05-21T01:48:16.801Z,13.21
2023-05-21T01:49:16.788Z,13.18
2023-05-21T01:50:16.752Z,13.18
2023-05-21T01:51:17.044Z,13.18
2023-05-21T01:52:16.730Z,13.18
2023-05-21T01:53:16.723Z,13.15
2023-05-21T01:54:16.715Z,13.14
2023-05-21T01:55:16.744Z,13.14
2023-05-21T01:56:16.688Z,13.11
2023-05-21T01:57:16.676Z,13.12
2023-05-21T01:58:17.020Z,13.09
2023-05-21T01:59:16.676Z,13.07
2023-05-21T02:00:16.692Z,13.06
2023-05-21T02:01:16.933Z,13.04
2023-05-21T02:02:16.721Z,13.04
2023-05-21T02:03:16.747Z,13.03
2023-05-21T02:04:16.600Z,13.02
2023-05-21T02:05:16.882Z,13.03
2023-05-21T02:06:16.609Z,13.02
2023-05-21T02:07:16.626Z,13.02
2023-05-21T02:08:16.573Z,13.00
2023-05-21T02:09:16.548Z,13.00
2023-05-21T02:10:16.546Z,12.99
2023-05-21T02:11:16.515Z,12.99
2023-05-21T02:12:16.811Z,12.97
2023-05-21T02:13:16.532Z,12.96
2023-05-21T02:14:16.516Z,12.96
2023-05-21T02:15:16.484Z,12.95
2023-05-21T02:16:16.512Z,12.93
2023-05-21T02:17:16.480Z,12.92
2023-05-21T02:18:16.444Z,12.92
2023-05-21T02:19:17.238Z,12.87
2023-05-21T02:20:16.426Z,12.85
2023-05-21T02:21:16.456Z,12.84
2023-05-21T02:22:16.400Z,12.85
2023-05-21T02:23:16.415Z,12.84
2023-05-21T02:24:16.387Z,12.84
2023-05-21T02:25:16.417Z,12.82
2023-05-21T02:26:16.664Z,12.81
2023-05-21T02:27:16.343Z,12.81
2023-05-21T02:28:16.331Z,12.78
2023-05-21T02:29:16.353Z,12.79
2023-05-21T02:30:16.345Z,12.79
2023-05-21T02:31:16.371Z,12.78
2023-05-21T02:32:16.302Z,12.77
2023-05-21T02:33:16.575Z,12.78
2023-05-21T02:34:16.404Z,12.75
2023-05-21T02:35:16.287Z,12.75
2023-05-21T02:36:16.270Z,12.77
2023-05-21T02:37:16.322Z,12.77
2023-05-21T02:38:16.278Z,12.77
2023-05-21T02:39:16.323Z,12.75
2023-05-21T02:40:16.497Z,12.71
2023-05-21T02:41:16.304Z,12.71
2023-05-21T02:42:16.197Z,12.70
2023-05-21T02:43:16.461Z,12.67
2023-05-21T02:44:16.185Z,12.69
2023-05-21T02:45:16.157Z,12.67
2023-05-21T02:46:16.181Z,12.67
2023-05-21T02:47:16.141Z,12.69
2023-05-21T02:48:16.123Z,12.67
2023-05-21T02:49:16.147Z,12.69
2023-05-21T02:50:16.102Z,12.69
2023-05-21T02:51:16.093Z,12.69
2023-05-21T02:52:16.382Z,12.67
2023-05-21T02:53:16.081Z,12.69
2023-05-21T02:54:16.069Z,12.69
2023-05-21T02:55:16.090Z,12.69
2023-05-21T02:56:16.058Z,12.69
2023-05-21T02:57:16.032Z,12.67
2023-05-21T02:58:16.386Z,12.67
2023-05-21T02:59:16.013Z,12.69
2023-05-21T03:00:16.003Z,12.69
2023-05-21T03:01:16.097Z,12.69
2023-05-21T03:02:16.024Z,12.67
2023-05-21T03:03:16.009Z,12.69
2023-05-21T03:04:15.954Z,12.69
2023-05-21T03:05:16.226Z,12.67
2023-05-21T03:06:15.913Z,12.70
2023-05-21T03:07:15.991Z,12.67
2023-05-21T03:08:15.919Z,12.70
2023-05-21T03:09:15.948Z,12.69
2023-05-21T03:10:15.886Z,12.69
2023-05-21T03:11:15.900Z,12.69
2023-05-21T03:12:16.164Z,12.69
2023-05-21T03:13:15.882Z,12.67
2023-05-21T03:14:15.837Z,12.67
2023-05-21T03:15:15.829Z,12.67
2023-05-21T03:16:15.839Z,12.69
2023-05-21T03:17:15.810Z,12.67
2023-05-21T03:18:15.788Z,12.69
2023-05-21T03:19:16.113Z,12.67
2023-05-21T03:20:15.776Z,12.67
2023-05-21T03:21:15.768Z,12.66
2023-05-21T03:22:15.774Z,12.66
2023-05-21T03:23:16.850Z,12.66
2023-05-21T03:24:15.748Z,12.64
2023-05-21T03:25:15.768Z,12.63
2023-05-21T03:26:16.004Z,12.62
2023-05-21T03:27:15.719Z,12.62
2023-05-21T03:28:15.690Z,12.59
2023-05-21T03:29:15.693Z,12.59
2023-05-21T03:30:15.676Z,12.60
2023-05-21T03:31:15.716Z,12.60
2023-05-21T03:32:15.800Z,12.62
2023-05-21T03:33:15.921Z,12.60
2023-05-21T03:34:15.626Z,12.59
2023-05-21T03:35:15.618Z,12.60
2023-05-21T03:36:15.612Z,12.59
2023-05-21T03:37:15.636Z,12.60
2023-05-21T03:38:15.584Z,12.60
2023-05-21T03:39:15.581Z,12.60
2023-05-21T03:40:15.557Z,12.59
2023-05-21T03:41:15.565Z,12.57
2023-05-21T03:42:15.543Z,12.57
2023-05-21T03:43:15.587Z,12.54
2023-05-21T03:44:15.526Z,12.57
2023-05-21T03:45:15.524Z,12.56
2023-05-21T03:46:15.824Z,12.56
2023-05-21T03:47:15.495Z,12.57
2023-05-21T03:48:15.509Z,12.57
2023-05-21T03:49:15.527Z,12.56
2023-05-21T03:50:15.477Z,12.54
2023-05-21T03:51:15.446Z,12.54
2023-05-21T03:52:15.459Z,12.56
2023-05-21T03:53:15.713Z,12.56
2023-05-21T03:54:15.407Z,12.57
2023-05-21T03:55:15.432Z,12.57
2023-05-21T03:56:15.442Z,12.59
2023-05-21T03:57:15.399Z,12.59
2023-05-21T03:58:15.355Z,12.59
2023-05-21T03:59:15.362Z,12.60
2023-05-21T04:00:15.644Z,12.60
2023-05-21T04:01:15.378Z,12.59
2023-05-21T04:02:15.365Z,12.60
2023-05-21T04:03:15.553Z,12.60
2023-05-21T04:04:15.420Z,12.60
2023-05-21T04:05:15.300Z,12.59
2023-05-21T04:06:15.278Z,12.60
2023-05-21T04:07:15.665Z,12.62
2023-05-21T04:08:15.298Z,12.60
2023-05-21T04:09:15.258Z,12.60
2023-05-21T04:10:15.259Z,12.62
2023-05-21T04:11:15.227Z,12.62
2023-05-21T04:12:15.212Z,12.62
2023-05-21T04:13:15.243Z,12.63
2023-05-21T04:14:15.509Z,12.64
2023-05-21T04:15:15.243Z,12.66
2023-05-21T04:16:15.226Z,12.67
2023-05-21T04:17:15.180Z,12.70
2023-05-21T04:18:15.168Z,12.67
2023-05-21T04:19:15.241Z,12.70
2023-05-21T04:20:15.156Z,12.70
2023-05-21T04:21:15.421Z,12.71
2023-05-21T04:22:15.125Z,12.75
2023-05-21T04:23:15.116Z,12.75
2023-05-21T04:24:15.089Z,12.75
2023-05-21T04:25:15.137Z,12.78
2023-05-21T04:26:15.106Z,12.78
2023-05-21T04:27:15.063Z,12.81
2023-05-21T04:28:15.349Z,12.82
2023-05-21T04:29:15.045Z,12.82
2023-05-21T04:30:15.060Z,12.84
2023-05-21T04:31:15.103Z,12.88
2023-05-21T04:32:15.043Z,12.92
2023-05-21T04:33:15.008Z,12.93
2023-05-21T04:34:14.986Z,12.95
2023-05-21T04:35:15.350Z,12.97
2023-05-21T04:36:14.970Z,12.99
2023-05-21T04:37:15.003Z,13.00
2023-05-21T04:38:14.941Z,13.06
2023-05-21T04:39:14.941Z,13.09
2023-05-21T04:40:14.924Z,13.11
2023-05-21T04:41:14.960Z,13.14
2023-05-21T04:42:15.195Z,13.17
2023-05-21T04:43:14.942Z,13.20
2023-05-21T04:44:15.308Z,13.22
2023-05-21T04:45:14.926Z,13.24
2023-05-21T04:46:14.894Z,13.27
2023-05-21T04:47:15.069Z,13.29
2023-05-21T04:48:14.832Z,13.32
2023-05-21T04:49:15.167Z,13.36
2023-05-21T04:50:14.819Z,13.40
2023-05-21T04:51:14.817Z,13.40
2023-05-21T04:52:14.802Z,13.40
2023-05-21T04:53:14.793Z,13.43
2023-05-21T04:54:14.792Z,13.43
2023-05-21T04:55:14.823Z,13.44
2023-05-21T04:56:15.021Z,13.49
2023-05-21T04:57:14.756Z,13.47
2023-05-21T04:58:14.722Z,13.47
2023-05-21T04:59:14.724Z,13.52
2023-05-21T05:00:14.709Z,13.52
2023-05-21T05:01:14.790Z,13.54
2023-05-21T05:02:14.786Z,13.58
2023-05-21T05:03:15.192Z,13.58
2023-05-21T05:04:14.682Z,13.58
2023-05-21T05:05:14.682Z,13.61
2023-05-21T05:06:14.648Z,13.63
2023-05-21T05:07:14.670Z,13.65
2023-05-21T05:08:16.066Z,13.67
2023-05-21T05:09:14.616Z,13.70
2023-05-21T05:10:14.884Z,13.70
2023-05-21T05:11:14.605Z,13.73
2023-05-21T05:12:14.602Z,13.76
2023-05-21T05:13:14.626Z,13.77
2023-05-21T05:14:14.603Z,13.79
2023-05-21T05:15:14.565Z,13.80
2023-05-21T05:16:14.570Z,13.81
2023-05-21T05:17:14.922Z,13.80
2023-05-21T05:18:14.540Z,13.87
2023-05-21T05:19:14.566Z,13.88
2023-05-21T05:20:14.514Z,13.89
2023-05-21T05:21:14.488Z,13.94
2023-05-21T05:22:14.491Z,13.94
2023-05-21T05:23:14.464Z,13.95
2023-05-21T05:24:14.767Z,13.99
2023-05-21T05:25:14.491Z,14.01
2023-05-21T05:26:14.448Z,14.02
2023-05-21T05:27:14.665Z,14.06
2023-05-21T05:28:14.438Z,14.07
2023-05-21T05:29:14.435Z,14.12
2023-05-21T05:30:14.429Z,14.12
2023-05-21T05:31:14.755Z,14.14
2023-05-21T05:32:14.402Z,14.16
2023-05-21T05:33:14.387Z,14.17
2023-05-21T05:34:14.345Z,14.19
2023-05-21T05:35:14.350Z,14.20
2023-05-21T05:36:14.368Z,14.19
2023-05-21T05:37:14.384Z,14.21
2023-05-21T05:38:14.609Z,14.21
2023-05-21T05:39:14.306Z,14.21
2023-05-21T05:40:14.293Z,14.25
2023-05-21T05:41:14.301Z,14.28
2023-05-21T05:42:14.265Z,14.31
2023-05-21T05:43:14.303Z,14.32
2023-05-21T05:44:14.259Z,14.35
2023-05-21T05:45:14.252Z,14.35
2023-05-21T05:46:14.313Z,14.38
2023-05-21T05:47:14.210Z,14.43
2023-05-21T05:48:14.200Z,14.43
2023-05-21T05:49:14.261Z,14.44
2023-05-21T05:50:14.192Z,14.46
2023-05-21T05:51:14.479Z,14.47
2023-05-21T05:52:14.171Z,14.47
2023-05-21T05:53:14.174Z,14.49
2023-05-21T05:54:14.253Z,14.49
2023-05-21T05:55:14.208Z,14.52
2023-05-21T05:56:14.128Z,14.54
2023-05-21T05:57:14.111Z,14.57
2023-05-21T05:58:14.380Z,14.61
2023-05-21T05:59:14.104Z,14.62
2023-05-21T06:00:14.061Z,14.65
2023-05-21T06:01:14.128Z,14.67
2023-05-21T06:02:14.208Z,14.71
2023-05-21T06:03:14.167Z,14.71
2023-05-21T06:04:14.060Z,14.72
2023-05-21T06:05:14.343Z,14.71
2023-05-21T06:06:14.181Z,14.75
2023-05-21T06:07:14.064Z,14.80
2023-05-21T06:08:14.031Z,14.84
2023-05-21T06:09:13.999Z,14.87
2023-05-21T06:10:13.970Z,14.90
2023-05-21T06:11:13.979Z,14.93
2023-05-21T06:12:14.963Z,14.95
2023-05-21T06:13:13.986Z,14.95
2023-05-21T06:14:13.934Z,14.95
2023-05-21T06:15:13.913Z,14.95
2023-05-21T06:16:13.968Z,14.91
2023-05-21T06:17:13.916Z,14.88
2023-05-21T06:18:13.886Z,14.84
2023-05-21T06:19:13.999Z,14.84
2023-05-21T06:20:13.901Z,14.84
2023-05-21T06:21:13.856Z,14.88
2023-05-21T06:22:13.868Z,14.93
2023-05-21T06:23:13.846Z,14.94
2023-05-21T06:24:13.867Z,14.94
2023-05-21T06:25:14.157Z,15.01
2023-05-21T06:26:13.805Z,15.03
2023-05-21T06:27:13.804Z,15.08
2023-05-21T06:28:13.790Z,15.12
2023-05-21T06:29:15.401Z,15.19
2023-05-21T06:30:13.764Z,15.21
2023-05-21T06:31:13.811Z,15.24
2023-05-21T06:32:13.761Z,15.26
2023-05-21T06:33:13.780Z,15.28
2023-05-21T06:34:13.725Z,15.30
2023-05-21T06:35:13.714Z,15.28
2023-05-21T06:36:13.687Z,15.28
2023-05-21T06:37:14.054Z,15.31
2023-05-21T06:38:13.664Z,15.28
2023-05-21T06:39:13.657Z,15.33
2023-05-21T06:40:13.657Z,15.39
2023-05-21T06:41:13.649Z,15.43
2023-05-21T06:42:13.630Z,15.43
2023-05-21T06:43:13.976Z,15.42
2023-05-21T06:44:13.605Z,15.45
2023-05-21T06:45:13.610Z,15.46
2023-05-21T06:46:13.623Z,15.49
2023-05-21T06:47:13.588Z,15.56
2023-05-21T06:48:13.574Z,15.60
2023-05-21T06:49:14.516Z,15.61
2023-05-21T06:50:13.847Z,15.60
2023-05-21T06:51:13.542Z,15.61
2023-05-21T06:52:13.535Z,15.68
2023-05-21T06:53:13.533Z,15.64
2023-05-21T06:54:13.535Z,15.60
2023-05-21T06:55:13.558Z,15.61
2023-05-21T06:56:13.498Z,15.61
2023-05-21T06:57:13.749Z,15.67
2023-05-21T06:58:13.485Z,15.72
2023-05-21T06:59:13.467Z,15.76
2023-05-21T07:00:13.486Z,15.72
2023-05-21T07:01:13.508Z,15.72
2023-05-21T07:02:13.480Z,15.70
2023-05-21T07:03:13.564Z,15.56
2023-05-21T07:04:13.676Z,15.56
2023-05-21T07:05:13.429Z,15.64
2023-05-21T07:06:13.383Z,15.68
2023-05-21T07:07:13.401Z,15.74
2023-05-21T07:08:13.368Z,15.78
2023-05-21T07:09:13.370Z,15.84
2023-05-21T07:10:13.348Z,15.93
2023-05-21T07:11:13.623Z,15.97
2023-05-21T07:12:13.337Z,16.04
2023-05-21T07:13:13.339Z,16.09
2023-05-21T07:14:13.307Z,16.15
2023-05-21T07:15:13.355Z,16.18
2023-05-21T07:16:13.349Z,16.20
2023-05-21T07:17:13.311Z,16.31
2023-05-21T07:18:13.656Z,16.40
2023-05-21T07:19:13.318Z,16.45
2023-05-21T07:20:13.350Z,16.55
2023-05-21T07:21:13.266Z,16.59
2023-05-21T07:22:13.248Z,16.63
2023-05-21T07:23:13.193Z,16.63
2023-05-21T07:24:13.223Z,16.55
2023-05-21T07:25:13.566Z,16.55
2023-05-21T07:26:13.174Z,16.58
2023-05-21T07:27:24.835Z,16.63
2023-05-21T07:28:13.159Z,16.68
2023-05-21T07:29:13.148Z,16.73
2023-05-21T07:30:13.209Z,16.73
2023-05-21T07:31:13.248Z,16.70
2023-05-21T07:32:13.421Z,16.65
2023-05-21T07:33:13.124Z,16.75
2023-05-21T07:34:13.093Z,16.83
2023-05-21T07:35:13.072Z,16.83
2023-05-21T07:36:13.069Z,16.71
2023-05-21T07:37:13.111Z,16.65
2023-05-21T07:38:13.049Z,16.73
2023-05-21T07:39:13.357Z,16.81
2023-05-21T07:40:13.063Z,16.93
2023-05-21T07:41:13.044Z,16.96
2023-05-21T07:42:13.007Z,17.04
2023-05-21T07:43:13.057Z,17.07
2023-05-21T07:44:12.986Z,17.14
2023-05-21T07:45:13.000Z,17.23
2023-05-21T07:46:13.284Z,17.35
2023-05-21T07:47:12.975Z,17.44
2023-05-21T07:48:13.042Z,17.50
2023-05-21T07:49:12.960Z,17.57
2023-05-21T07:50:12.922Z,17.67
2023-05-21T07:51:12.895Z,17.74
2023-05-21T07:52:12.902Z,17.78
2023-05-21T07:53:13.217Z,17.63
2023-05-21T07:54:12.876Z,17.62
2023-05-21T07:55:12.915Z,17.69
2023-05-21T07:56:12.881Z,17.74
2023-05-21T07:57:12.871Z,17.67
2023-05-21T07:58:12.840Z,17.73
2023-05-21T07:59:13.862Z,17.71
2023-05-21T08:00:12.821Z,17.73
2023-05-21T08:01:12.915Z,17.88
2023-05-21T08:02:12.798Z,18.00
2023-05-21T08:03:12.952Z,18.12
2023-05-21T08:04:12.903Z,18.34
2023-05-21T08:05:12.901Z,18.50
2023-05-21T08:06:13.058Z,18.64
2023-05-21T08:07:12.811Z,18.90
2023-05-21T08:08:12.764Z,19.14
2023-05-21T08:09:12.740Z,19.35
2023-05-21T08:10:12.715Z,19.58
2023-05-21T08:11:12.712Z,19.69
2023-05-21T08:12:12.746Z,19.53
2023-05-21T08:13:12.724Z,19.38
2023-05-21T08:14:12.653Z,19.50
2023-05-21T08:15:12.663Z,19.68
2023-05-21T08:16:12.709Z,19.86
2023-05-21T08:17:12.637Z,19.91
2023-05-21T08:18:12.649Z,19.98
2023-05-21T08:19:13.026Z,20.18
2023-05-21T08:20:12.599Z,20.28
2023-05-21T08:21:12.591Z,20.38
2023-05-21T08:22:12.607Z,20.39
2023-05-21T08:23:12.573Z,20.39
2023-05-21T08:24:12.606Z,20.47
2023-05-21T08:25:12.645Z,20.51
2023-05-21T08:26:12.541Z,20.15
2023-05-21T08:27:12.558Z,19.83
2023-05-21T08:28:12.503Z,19.83
2023-05-21T08:29:12.498Z,19.68
2023-05-21T08:30:12.522Z,19.66
2023-05-21T08:31:12.594Z,19.58
2023-05-21T08:32:12.646Z,19.61
2023-05-21T08:33:12.563Z,19.78
2023-05-21T08:34:12.470Z,20.06
2023-05-21T08:35:12.461Z,20.21
2023-05-21T08:36:12.458Z,20.28
2023-05-21T08:37:12.504Z,20.50
2023-05-21T08:38:12.712Z,20.65
2023-05-21T08:39:12.460Z,20.62
2023-05-21T08:40:12.421Z,20.35
2023-05-21T08:41:12.469Z,20.00
2023-05-21T08:42:13.168Z,20.00
2023-05-21T08:43:12.464Z,19.98
2023-05-21T08:44:12.703Z,20.03
2023-05-21T08:45:12.348Z,19.93
2023-05-21T08:46:12.418Z,19.69
2023-05-21T08:47:12.312Z,19.73
2023-05-21T08:48:12.316Z,19.79
2023-05-21T08:49:12.366Z,19.91
2023-05-21T08:50:12.314Z,20.03
2023-05-21T08:51:12.322Z,20.20
2023-05-21T08:52:12.269Z,20.41
2023-05-21T08:53:19.904Z,20.23
2023-05-21T08:54:12.249Z,20.27
2023-05-21T08:55:12.321Z,20.39
2023-05-21T08:56:12.515Z,20.54
2023-05-21T08:57:12.226Z,20.56
2023-05-21T08:58:12.276Z,20.35
2023-05-21T08:59:12.201Z,20.34
2023-05-21T09:00:12.228Z,20.43
2023-05-21T09:01:12.298Z,20.53
2023-05-21T09:02:12.176Z,20.53
2023-05-21T09:03:12.515Z,20.24
2023-05-21T09:04:20.310Z,20.30
2023-05-21T09:05:12.135Z,20.39
2023-05-21T09:06:12.135Z,20.47
2023-05-21T09:07:12.163Z,20.56
2023-05-21T09:08:12.161Z,20.54
2023-05-21T09:09:12.141Z,20.54
2023-05-21T09:10:12.403Z,20.42
2023-05-21T09:11:12.172Z,20.00
2023-05-21T09:12:12.064Z,20.10
2023-05-21T09:13:12.112Z,20.23
2023-05-21T09:14:12.039Z,20.28
2023-05-21T09:15:12.035Z,20.35
2023-05-21T09:16:12.060Z,20.50
2023-05-21T09:17:12.014Z,20.68
2023-05-21T09:18:12.003Z,20.86
2023-05-21T09:19:12.115Z,20.99
2023-05-21T09:20:12.034Z,21.11
2023-05-21T09:21:11.950Z,21.16
2023-05-21T09:22:11.972Z,21.24
2023-05-21T09:23:12.226Z,21.26
2023-05-21T09:24:11.970Z,21.32
2023-05-21T09:25:11.978Z,21.34
2023-05-21T09:26:11.905Z,21.36
2023-05-21T09:27:11.907Z,21.32
2023-05-21T09:28:11.897Z,21.23
2023-05-21T09:29:11.905Z,21.21
2023-05-21T09:30:11.856Z,21.20
2023-05-21T09:31:11.930Z,21.23
2023-05-21T09:32:11.835Z,21.30
2023-05-21T09:33:11.880Z,21.38
2023-05-21T09:34:11.848Z,21.39
2023-05-21T09:35:11.822Z,21.27
2023-05-21T09:36:12.106Z,21.17
2023-05-21T09:37:23.590Z,21.20
2023-05-21T09:38:11.776Z,21.30
2023-05-21T09:39:11.806Z,21.34
2023-05-21T09:40:11.783Z,21.39
2023-05-21T09:41:11.769Z,21.34
2023-05-21T09:42:11.761Z,21.29
2023-05-21T09:43:11.789Z,21.35
2023-05-21T09:44:11.719Z,21.46
2023-05-21T09:45:11.771Z,21.51
2023-05-21T09:46:11.771Z,21.51
2023-05-21T09:47:11.649Z,21.51
2023-05-21T09:48:11.993Z,21.53
2023-05-21T09:49:11.680Z,21.60
2023-05-21T09:50:11.701Z,21.63
2023-05-21T09:51:11.632Z,21.63
2023-05-21T09:52:11.641Z,21.57
2023-05-21T09:53:11.623Z,21.34
2023-05-21T09:54:11.900Z,21.02
2023-05-21T09:55:11.695Z,21.01
2023-05-21T09:56:11.582Z,20.93
2023-05-21T09:57:11.582Z,20.98
2023-05-21T09:58:11.635Z,20.89
2023-05-21T09:59:11.621Z,21.09
2023-05-21T10:00:11.573Z,21.36
2023-05-21T10:01:11.884Z,21.59
2023-05-21T10:02:11.673Z,21.90
2023-05-21T10:03:11.623Z,22.09
2023-05-21T10:04:11.514Z,22.20
2023-05-21T10:05:11.503Z,22.07
2023-05-21T10:06:11.522Z,21.85
2023-05-21T10:07:11.565Z,21.90
2023-05-21T10:08:11.755Z,22.02
2023-05-21T10:09:11.532Z,22.16
2023-05-21T10:10:11.431Z,22.27
2023-05-21T10:11:11.413Z,22.38
2023-05-21T10:12:11.427Z,22.39
2023-05-21T10:13:11.445Z,22.43
2023-05-21T10:14:11.399Z,22.52
2023-05-21T10:15:11.368Z,22.62
2023-05-21T10:16:11.487Z,22.50
2023-05-21T10:17:11.351Z,22.59
2023-05-21T10:18:11.476Z,22.60
2023-05-21T10:19:11.503Z,22.57
2023-05-21T10:20:11.349Z,22.65
2023-05-21T10:21:11.674Z,22.78
2023-05-21T10:22:11.359Z,22.90
2023-05-21T10:23:11.292Z,22.97
2023-05-21T10:24:11.351Z,22.97
2023-05-21T10:25:11.385Z,22.99
2023-05-21T10:26:11.298Z,23.08
2023-05-21T10:27:11.295Z,22.99
2023-05-21T10:28:11.525Z,22.92
2023-05-21T10:29:11.282Z,22.82
2023-05-21T10:30:11.284Z,22.46
2023-05-21T10:31:11.303Z,22.43
2023-05-21T10:32:11.254Z,22.46
2023-05-21T10:33:11.246Z,22.25
2023-05-21T10:34:11.229Z,22.19
2023-05-21T10:35:11.194Z,22.35
2023-05-21T10:36:11.196Z,22.43
2023-05-21T10:37:11.238Z,22.28
2023-05-21T10:38:11.152Z,22.37
2023-05-21T10:39:11.130Z,22.41
2023-05-21T10:40:11.207Z,22.50
2023-05-21T10:41:11.396Z,22.54
2023-05-21T10:42:11.167Z,22.57
2023-05-21T10:43:11.179Z,22.47
2023-05-21T10:44:11.171Z,22.43
2023-05-21T10:45:11.075Z,22.41
2023-05-21T10:46:11.152Z,22.52
2023-05-21T10:47:11.102Z,22.68
2023-05-21T10:48:11.441Z,22.86
2023-05-21T10:49:11.067Z,22.94
2023-05-21T10:50:11.023Z,22.92
2023-05-21T10:51:11.008Z,22.97
2023-05-21T10:52:11.069Z,22.83
2023-05-21T10:53:11.066Z,22.80
2023-05-21T10:54:11.007Z,22.93
2023-05-21T10:55:11.271Z,23.11
2023-05-21T10:56:11.010Z,23.26
2023-05-21T10:57:10.995Z,23.43
2023-05-21T10:58:11.023Z,23.57
2023-05-21T10:59:10.953Z,23.65
2023-05-21T11:00:10.937Z,23.31
2023-05-21T11:01:11.103Z,23.32
2023-05-21T11:02:10.899Z,23.45
2023-05-21T11:03:10.978Z,23.46
2023-05-21T11:04:10.898Z,23.42
2023-05-21T11:05:10.935Z,23.46
2023-05-21T11:06:10.890Z,23.53
2023-05-21T11:07:11.049Z,23.64
2023-05-21T11:08:10.850Z,23.67
2023-05-21T11:09:10.855Z,23.77
2023-05-21T11:10:10.860Z,23.85
2023-05-21T11:11:10.917Z,23.77
2023-05-21T11:12:10.805Z,23.68
2023-05-21T11:13:10.927Z,23.67
2023-05-21T11:14:10.802Z,23.61
2023-05-21T11:15:10.763Z,23.64
2023-05-21T11:16:10.791Z,23.62
2023-05-21T11:17:10.912Z,23.72
2023-05-21T11:18:10.737Z,23.53
2023-05-21T11:19:10.862Z,23.46
2023-05-21T11:20:10.736Z,23.47
2023-05-21T11:21:10.743Z,23.50
2023-05-21T11:22:10.711Z,23.64
2023-05-21T11:23:10.792Z,23.83
2023-05-21T11:24:10.703Z,24.02
2023-05-21T11:25:10.770Z,24.10
2023-05-21T11:26:10.994Z,23.95
2023-05-21T11:27:10.694Z,23.47
2023-05-21T11:28:10.666Z,23.42
2023-05-21T11:29:10.688Z,23.29
2023-05-21T11:30:10.703Z,23.42
2023-05-21T11:31:10.652Z,23.40
2023-05-21T11:32:10.637Z,23.31
2023-05-21T11:33:10.958Z,23.42
2023-05-21T11:34:10.586Z,23.50
2023-05-21T11:35:10.585Z,23.65
2023-05-21T11:36:10.536Z,23.76
2023-05-21T11:37:10.594Z,23.90
2023-05-21T11:38:10.487Z,24.01
2023-05-21T11:39:10.514Z,24.00
2023-05-21T11:40:10.780Z,24.02
2023-05-21T11:41:10.472Z,24.04
2023-05-21T11:42:10.498Z,24.07
2023-05-21T11:43:10.521Z,24.16
2023-05-21T11:44:10.486Z,24.07
2023-05-21T11:45:10.500Z,23.70
2023-05-21T11:46:10.459Z,23.53
2023-05-21T11:47:10.748Z,23.55
2023-05-21T11:48:10.475Z,23.64
2023-05-21T11:49:10.461Z,23.79
2023-05-21T11:50:10.437Z,23.94
2023-05-21T11:51:10.379Z,23.79
2023-05-21T11:52:10.370Z,23.60
2023-05-21T11:53:10.393Z,23.42
2023-05-21T11:54:10.699Z,23.45
2023-05-21T11:55:10.487Z,23.52
2023-05-21T11:56:10.317Z,23.58
2023-05-21T11:57:10.351Z,23.72
2023-05-21T11:58:10.327Z,23.92
2023-05-21T11:59:10.303Z,24.12
2023-05-21T12:00:10.323Z,24.26
2023-05-21T12:01:10.617Z,24.39
2023-05-21T12:02:10.303Z,24.50
2023-05-21T12:03:10.403Z,24.54
2023-05-21T12:04:10.503Z,24.67
2023-05-21T12:05:10.761Z,24.69
2023-05-21T12:06:10.317Z,24.76
2023-05-21T12:07:10.343Z,24.71
2023-05-21T12:08:10.544Z,24.73
2023-05-21T12:09:10.697Z,24.77
2023-05-21T12:10:10.210Z,24.79
2023-05-21T12:11:10.168Z,24.71
2023-05-21T12:12:10.186Z,24.34
2023-05-21T12:13:10.221Z,24.20
2023-05-21T12:14:10.142Z,24.12
2023-05-21T12:15:10.148Z,24.07
2023-05-21T12:16:10.148Z,24.22
2023-05-21T12:17:10.169Z,24.35
2023-05-21T12:18:10.125Z,24.49
2023-05-21T12:19:10.216Z,24.49
2023-05-21T12:20:10.065Z,24.42
2023-05-21T12:21:12.343Z,24.41
2023-05-21T12:22:10.099Z,24.56
2023-05-21T12:23:10.031Z,24.69
2023-05-21T12:24:10.062Z,24.77
2023-05-21T12:25:10.286Z,24.90
2023-05-21T12:26:09.986Z,24.97
2023-05-21T12:27:09.964Z,25.16
2023-05-21T12:28:10.256Z,25.30
2023-05-21T12:29:09.976Z,25.35
2023-05-21T12:30:10.017Z,25.32
2023-05-21T12:31:10.002Z,25.34
2023-05-21T12:32:10.087Z,25.38
2023-05-21T12:33:09.975Z,25.47
2023-05-21T12:34:09.927Z,25.50
2023-05-21T12:35:10.243Z,25.52
2023-05-21T12:36:09.964Z,25.50
2023-05-21T12:37:10.036Z,25.49
2023-05-21T12:38:09.927Z,25.54
2023-05-21T12:39:11.232Z,25.61
2023-05-21T12:40:09.891Z,25.74
2023-05-21T12:41:09.877Z,25.80
2023-05-21T12:42:10.156Z,25.87
2023-05-21T12:43:09.987Z,25.94
2023-05-21T12:44:09.831Z,25.93
2023-05-21T12:45:09.816Z,25.90
2023-05-21T12:46:09.866Z,25.90
2023-05-21T12:47:09.836Z,25.97
2023-05-21T12:48:09.850Z,26.01
2023-05-21T12:49:10.134Z,25.87
2023-05-21T12:50:09.776Z,25.54
2023-05-21T12:51:09.738Z,25.50
2023-05-21T12:52:09.747Z,25.53